Versailles, IN

2:31 PM EDT on May 29, 2015 (GMT -0400)
Cincinnati Municipal-Lunken | | Change Station
CLOSE
Current Station
Airport
Location: Cincinnati,
Elevation: 482 ft
Nearby Weather Stations

Elev 482 ft 39.10 °N, 84.42 °W | Updated 38 minutes ago

Mostly Cloudy
Mostly Cloudy
80 °F
Feels Like 83 °F
N
9
Wind Variable Wind from South

Today
High -- | Low -- °F
--% Chance of Precip.
Yesterday
High -- | Low -- °F
Precip. -- in
6:18 AM 8:58 PM
Waxing Gibbous, 85% visible
Pressure 30.14 in
Visibility 10.0 miles
Clouds Mostly Cloudy 2600 ft
Mostly Cloudy 3400 ft
Heat Index 83 °F
Dew Point 70 °F
Humidity 71%
Rainfall 0.23 in
Snow Depth Not available.
UV 6 out of 12
Pollen 7.40 out of 12
Air Quality Not available.
Flu Activity Sporadic
METAR KLUK 291753Z 18008KT 10SM BKN026 BKN034 27/21 A3015 RMK AO2 SLP205 T02670211 10267 20194 58010

More Conditions Fewer Conditions

Pressure 30.14 in
Visibility 10.0 miles
Clouds Mostly Cloudy 2600 ft
Mostly Cloudy 3400 ft
Heat Index 83 °F
Dew Point 70 °F
Humidity 71%
Rainfall 0.23 in
Snow Depth Not available.
UV 6 out of 12
Pollen 7.40 out of 12
Air Quality Not available.
Flu Activity Sporadic
METAR KLUK 291753Z 18008KT 10SM BKN026 BKN034 27/21 A3015 RMK AO2 SLP205 T02670211 10267 20194 58010

More Conditions Fewer Conditions

10-Day Weather Forecast

Almanac

Astronomy

May. 29, 2015 Rise Set
Actual Time
Civil Twilight
Nautical Twilight
Astronomical Twilight
Moon
Length of Visible Light
Length of Day
Tomorrow will be .
, % of the Moon is Illuminated

Today's Extremes

State Highs State Lows

Community

WunderPhotos

Upload Photos

1,825,322 photos uploaded!

WunderBlogs® & News

Nearby

Air Quality

  Air Quality AQ Index Pollutant
Not available.

Snow Depth

Station Depth Elevation

Earthquake Activity

City Distance Mag. Time & Date
Minimum magnitude displayed is 2.5.

Coastal Water Temperatures

Place Temperature

Stations

Nearby Weather Stations

Station Location Temp. Windchill Dew Point Humidity Wind Precip. Elev Updated Type